createdAt,value
2023-03-06T00:01:02.552Z,13.38
2023-03-06T00:03:30.027Z,12.07
2023-03-06T00:05:58.097Z,11.60
2023-03-06T00:08:26.372Z,13.50
2023-03-06T00:10:54.569Z,12.57
2023-03-06T00:13:23.929Z,6.82
2023-03-06T00:15:51.682Z,12.50
2023-03-06T00:18:19.078Z,8.48
2023-03-06T00:20:46.852Z,11.05
2023-03-06T00:23:14.264Z,8.35
2023-03-06T00:25:42.634Z,7.55
2023-03-06T00:28:10.041Z,11.13
2023-03-06T00:30:38.016Z,8.23
2023-03-06T00:33:05.334Z,9.45
2023-03-06T00:35:33.005Z,9.82
2023-03-06T00:38:00.445Z,7.00
2023-03-06T00:40:28.110Z,8.73
2023-03-06T00:42:55.697Z,11.95
2023-03-06T00:45:23.508Z,7.50
2023-03-06T00:47:50.938Z,7.30
2023-03-06T00:50:18.670Z,10.57
2023-03-06T00:52:46.012Z,7.85
2023-03-06T00:55:15.950Z,8.48
2023-03-06T00:57:43.580Z,10.80
2023-03-06T01:00:12.783Z,9.57
2023-03-06T01:02:40.436Z,11.32
2023-03-06T01:05:08.336Z,7.78
2023-03-06T01:07:35.755Z,8.07
2023-03-06T01:10:04.765Z,6.40
2023-03-06T01:12:32.143Z,9.93
2023-03-06T01:14:59.875Z,8.10
2023-03-06T01:17:27.446Z,7.25
2023-03-06T01:19:55.123Z,6.78
2023-03-06T01:22:22.488Z,9.00
2023-03-06T01:24:50.224Z,11.20
2023-03-06T01:27:17.689Z,11.07
2023-03-06T01:29:45.330Z,6.57
2023-03-06T01:32:12.717Z,10.80
2023-03-06T01:34:40.449Z,10.80
2023-03-06T01:37:25.875Z,9.50
2023-03-06T01:39:53.503Z,9.10
2023-03-06T01:42:20.901Z,8.23
2023-03-06T01:44:58.860Z,12.80
2023-03-06T01:47:26.284Z,10.43
2023-03-06T01:49:54.103Z,8.40
2023-03-06T01:52:23.738Z,10.45
2023-03-06T01:54:56.792Z,8.48
2023-03-06T01:57:25.870Z,10.07
2023-03-06T01:59:55.839Z,10.20
2023-03-06T02:05:56.241Z,9.05
2023-03-06T02:08:26.305Z,8.70
2023-03-06T02:10:59.627Z,7.88
2023-03-06T02:13:27.304Z,9.13
2023-03-06T02:15:54.965Z,8.50
2023-03-06T02:18:23.139Z,9.60
2023-03-06T02:20:53.028Z,9.70
2023-03-06T02:23:28.037Z,9.68
2023-03-06T02:25:55.796Z,12.10
2023-03-06T02:28:23.950Z,10.82
2023-03-06T02:30:52.431Z,10.45
2023-03-06T02:33:21.860Z,10.43
2023-03-06T02:36:09.520Z,9.70
2023-03-06T02:38:40.703Z,15.57
2023-03-06T02:41:08.409Z,9.23
2023-03-06T02:43:37.560Z,11.52
2023-03-06T02:46:05.263Z,17.10
2023-03-06T02:48:33.161Z,14.55
2023-03-06T02:51:01.222Z,9.80
2023-03-06T02:53:28.854Z,15.95
2023-03-06T02:55:56.284Z,10.43
2023-03-06T02:58:24.049Z,14.45
2023-03-06T03:00:51.404Z,15.82
2023-03-06T03:03:19.164Z,15.02
2023-03-06T03:05:46.661Z,13.23
2023-03-06T03:08:14.280Z,15.85
2023-03-06T03:10:41.668Z,14.07
2023-03-06T03:13:09.371Z,20.60
2023-03-06T03:15:36.824Z,10.68
2023-03-06T03:18:04.606Z,19.73
2023-03-06T03:20:32.019Z,18.77
2023-03-06T03:22:59.693Z,18.05
2023-03-06T03:25:27.117Z,15.10
2023-03-06T03:27:54.766Z,13.65
2023-03-06T03:30:22.173Z,11.93
2023-03-06T03:32:49.884Z,11.13
2023-03-06T03:35:17.382Z,19.20
2023-03-06T03:37:45.165Z,15.23
2023-03-06T03:40:12.777Z,14.98
2023-03-06T03:42:41.572Z,17.92
2023-03-06T03:45:09.077Z,13.05
2023-03-06T03:47:38.942Z,15.65
2023-03-06T03:50:06.853Z,14.88
2023-03-06T03:52:34.566Z,21.48
2023-03-06T03:55:02.012Z,15.05
2023-03-06T03:57:29.677Z,15.80
2023-03-06T03:59:57.169Z,14.07
2023-03-06T04:02:24.781Z,15.90
2023-03-06T04:04:52.233Z,14.48
2023-03-06T04:07:19.702Z,15.43
2023-03-06T04:09:47.367Z,15.23
2023-03-06T04:12:14.691Z,15.63
2023-03-06T04:14:42.382Z,14.75
2023-03-06T04:17:09.865Z,19.58
2023-03-06T04:19:37.611Z,26.50
2023-03-06T04:22:04.996Z,20.75
2023-03-06T04:24:32.694Z,21.73
2023-03-06T04:27:00.184Z,29.33
2023-03-06T04:29:27.866Z,21.88
2023-03-06T04:31:55.306Z,26.42
2023-03-06T04:34:23.108Z,20.73
2023-03-06T04:36:50.606Z,22.95
2023-03-06T04:39:18.305Z,23.20
2023-03-06T04:41:45.766Z,21.13
2023-03-06T04:44:13.533Z,23.52
2023-03-06T04:46:40.904Z,21.60
2023-03-06T04:49:08.753Z,18.80
2023-03-06T04:51:36.090Z,24.85
2023-03-06T04:54:04.277Z,19.45
2023-03-06T04:56:31.632Z,21.83
2023-03-06T04:58:59.316Z,21.55
2023-03-06T05:01:26.670Z,21.83
2023-03-06T05:03:54.343Z,25.55
2023-03-06T05:06:21.799Z,20.50
2023-03-06T05:08:49.600Z,19.83
2023-03-06T05:11:17.062Z,21.65
2023-03-06T05:13:44.765Z,22.33
2023-03-06T05:16:12.170Z,20.38
2023-03-06T05:18:39.965Z,20.40
2023-03-06T05:21:07.356Z,21.50
2023-03-06T05:23:36.085Z,17.25
2023-03-06T05:26:05.454Z,20.13
2023-03-06T05:28:33.330Z,23.13
2023-03-06T05:31:03.277Z,21.02
2023-03-06T05:33:31.922Z,22.88
2023-03-06T05:35:59.514Z,20.42
2023-03-06T05:38:27.452Z,20.20
2023-03-06T05:40:54.765Z,22.23
2023-03-06T05:43:22.523Z,22.42
2023-03-06T05:45:49.881Z,21.83
2023-03-06T05:48:17.552Z,20.38
2023-03-06T05:50:44.968Z,19.10
2023-03-06T05:53:12.682Z,22.05
2023-03-06T05:55:40.232Z,19.52
2023-03-06T05:58:08.003Z,15.93
2023-03-06T06:00:35.359Z,19.13
2023-03-06T06:03:03.036Z,15.52
2023-03-06T06:05:30.361Z,14.55
2023-03-06T06:07:58.028Z,16.23
2023-03-06T06:10:25.385Z,16.35
2023-03-06T06:12:53.157Z,12.75
2023-03-06T06:15:23.470Z,15.95
2023-03-06T06:17:51.185Z,12.30
2023-03-06T06:20:18.684Z,15.45
2023-03-06T06:22:46.544Z,12.02
2023-03-06T06:25:14.055Z,14.63
2023-03-06T06:27:41.881Z,13.13
2023-03-06T06:30:11.298Z,14.32
2023-03-06T06:32:39.516Z,15.80
2023-03-06T06:35:07.063Z,19.00
2023-03-06T06:37:35.401Z,23.52
2023-03-06T06:40:03.097Z,29.17
2023-03-06T06:42:38.897Z,28.33
2023-03-06T06:45:08.125Z,30.73
2023-03-06T06:47:36.142Z,18.95
2023-03-06T06:50:03.865Z,15.10
2023-03-06T06:52:31.566Z,17.52
2023-03-06T06:54:58.984Z,13.50
2023-03-06T06:57:26.651Z,13.23
2023-03-06T06:59:54.341Z,12.82
2023-03-06T07:02:28.149Z,14.10
2023-03-06T07:05:04.184Z,15.95
2023-03-06T07:07:47.939Z,16.00
2023-03-06T07:10:15.574Z,13.95
2023-03-06T07:12:43.267Z,14.07
2023-03-06T07:15:12.839Z,15.95
2023-03-06T07:17:40.610Z,14.45
2023-03-06T07:20:08.344Z,15.32
2023-03-06T07:22:48.681Z,13.30
2023-03-06T07:27:52.802Z,12.55
2023-03-06T07:30:21.892Z,19.27
2023-03-06T07:32:51.973Z,19.98
2023-03-06T07:35:20.846Z,17.23
2023-03-06T07:37:48.771Z,17.23
2023-03-06T07:40:16.443Z,16.02
2023-03-06T07:42:44.097Z,16.10
2023-03-06T07:45:11.931Z,15.93
2023-03-06T07:47:40.203Z,14.98
2023-03-06T07:50:07.860Z,15.95
2023-03-06T07:52:35.605Z,15.98
2023-03-06T07:55:03.004Z,17.83
2023-03-06T07:57:30.786Z,15.98
2023-03-06T07:59:58.128Z,14.90
2023-03-06T08:02:25.749Z,20.48
2023-03-06T08:04:53.958Z,17.63
2023-03-06T08:07:22.219Z,20.33
2023-03-06T08:09:49.639Z,17.92
2023-03-06T08:12:17.327Z,16.95
2023-03-06T08:14:44.684Z,16.85
2023-03-06T08:17:12.405Z,19.05
2023-03-06T08:19:39.789Z,16.67
2023-03-06T08:22:07.460Z,14.52
2023-03-06T08:24:34.950Z,13.70
2023-03-06T08:30:34.453Z,18.45
2023-03-06T08:33:02.109Z,19.58
2023-03-06T08:35:29.511Z,17.90
2023-03-06T08:37:57.283Z,17.45
2023-03-06T08:40:24.740Z,15.20
2023-03-06T08:42:52.447Z,18.83
2023-03-06T08:45:19.878Z,15.48
2023-03-06T08:47:47.560Z,18.38
2023-03-06T08:50:14.946Z,20.73
2023-03-06T08:52:42.575Z,14.38
2023-03-06T08:55:10.037Z,16.15
2023-03-06T08:57:37.684Z,14.82
2023-03-06T09:00:05.477Z,16.27
2023-03-06T09:02:33.167Z,17.73
2023-03-06T09:05:00.769Z,16.70
2023-03-06T09:07:29.395Z,17.42
2023-03-06T09:09:57.137Z,19.80
2023-03-06T09:12:25.086Z,15.23
2023-03-06T09:14:52.540Z,16.02
2023-03-06T09:17:20.369Z,17.25
2023-03-06T09:19:47.795Z,17.10
2023-03-06T09:22:15.472Z,13.63
2023-03-06T09:24:42.877Z,12.52
2023-03-06T09:27:10.505Z,12.98
2023-03-06T09:29:37.838Z,16.30
2023-03-06T09:32:05.730Z,14.00
2023-03-06T09:34:33.312Z,13.77
2023-03-06T09:37:01.981Z,15.38
2023-03-06T09:39:29.407Z,10.98
2023-03-06T09:41:57.562Z,12.57
2023-03-06T09:44:27.286Z,13.27
2023-03-06T09:46:58.050Z,14.48
2023-03-06T09:49:46.357Z,13.55
2023-03-06T09:52:16.806Z,12.25
2023-03-06T09:54:51.945Z,14.05
2023-03-06T09:57:22.533Z,12.77
2023-03-06T09:59:52.161Z,13.18
2023-03-06T10:02:25.610Z,14.55
2023-03-06T10:04:57.982Z,11.77
2023-03-06T10:07:33.571Z,10.55
2023-03-06T10:10:03.096Z,10.85
2023-03-06T10:12:38.843Z,15.35
2023-03-06T10:15:16.824Z,8.75
2023-03-06T10:17:44.864Z,10.90
2023-03-06T10:20:15.254Z,11.30
2023-03-06T10:22:55.370Z,10.63
2023-03-06T10:25:31.409Z,9.98
2023-03-06T10:28:11.164Z,9.70
2023-03-06T10:30:41.448Z,14.02
2023-03-06T10:33:27.227Z,10.27
2023-03-06T10:35:55.432Z,10.73
2023-03-06T10:38:25.929Z,10.05
2023-03-06T10:41:06.883Z,10.15
2023-03-06T10:43:36.479Z,10.15
2023-03-06T10:46:05.371Z,11.40
2023-03-06T10:48:33.830Z,12.07
2023-03-06T10:51:19.914Z,13.13
2023-03-06T10:53:50.513Z,17.38
2023-03-06T10:56:28.364Z,17.02
2023-03-06T10:59:11.018Z,11.25
2023-03-06T11:04:16.251Z,12.88
2023-03-06T11:06:44.080Z,13.40
2023-03-06T11:09:16.272Z,17.42
2023-03-06T11:11:43.591Z,11.57
2023-03-06T11:14:16.294Z,8.85
2023-03-06T11:16:49.723Z,14.20
2023-03-06T11:19:22.040Z,15.85
2023-03-06T11:21:59.201Z,15.32
2023-03-06T11:24:28.638Z,9.25
2023-03-06T11:27:00.613Z,12.27
2023-03-06T11:35:13.037Z,11.10
2023-03-06T11:37:43.119Z,13.75
2023-03-06T11:40:10.817Z,10.45
2023-03-06T11:42:38.265Z,11.05
2023-03-06T11:45:15.168Z,9.68
2023-03-06T11:47:51.648Z,11.65
2023-03-06T11:50:35.493Z,8.95
2023-03-06T11:53:06.836Z,10.93
2023-03-06T11:55:53.197Z,7.88
2023-03-06T11:58:35.813Z,8.13
2023-03-06T12:01:06.191Z,9.15
2023-03-06T12:03:42.735Z,9.65
2023-03-06T12:06:15.800Z,10.70
2023-03-06T12:08:46.016Z,12.40
2023-03-06T12:11:36.748Z,9.85
2023-03-06T12:14:15.587Z,8.52
2023-03-06T12:16:48.991Z,8.50
2023-03-06T12:19:22.357Z,9.35
2023-03-06T12:22:01.995Z,9.82
2023-03-06T12:24:36.275Z,8.57
2023-03-06T12:27:10.238Z,9.05
2023-03-06T12:29:53.127Z,8.73
2023-03-06T12:32:46.569Z,10.05
2023-03-06T12:35:24.375Z,12.75
2023-03-06T12:38:01.062Z,12.13
2023-03-06T12:40:46.524Z,9.75
2023-03-06T12:43:20.193Z,15.73
2023-03-06T12:45:48.224Z,10.80
2023-03-06T12:48:20.968Z,12.30
2023-03-06T12:50:48.729Z,11.63
2023-03-06T12:53:21.835Z,11.80
2023-03-06T12:55:50.420Z,11.05
2023-03-06T12:58:30.115Z,10.65
2023-03-06T13:01:04.503Z,13.70
2023-03-06T13:03:41.421Z,12.30
2023-03-06T13:06:14.699Z,11.63
2023-03-06T13:08:54.646Z,12.00
2023-03-06T13:11:30.913Z,11.35
2023-03-06T13:14:19.549Z,13.65
2023-03-06T13:16:47.064Z,12.00
2023-03-06T13:19:22.972Z,11.73
2023-03-06T13:21:56.157Z,10.73
2023-03-06T13:24:25.146Z,11.35
2023-03-06T13:26:55.304Z,10.85
2023-03-06T13:29:38.009Z,10.50
2023-03-06T13:32:14.508Z,10.63
2023-03-06T13:34:43.343Z,7.97
2023-03-06T13:37:13.569Z,10.77
2023-03-06T13:39:56.134Z,12.00
2023-03-06T13:44:54.877Z,10.70
2023-03-06T13:47:31.471Z,9.07
2023-03-06T13:49:59.749Z,8.95
2023-03-06T13:52:48.170Z,9.13
2023-03-06T13:55:41.427Z,12.80
2023-03-06T13:58:12.044Z,12.43
2023-03-06T14:01:02.082Z,13.88
2023-03-06T14:03:47.276Z,15.43
2023-03-06T14:06:33.574Z,15.05
2023-03-06T14:09:05.101Z,14.88
2023-03-06T14:11:33.076Z,16.55
2023-03-06T14:14:00.453Z,17.85
2023-03-06T14:16:37.609Z,12.20
2023-03-06T14:19:18.733Z,17.95
2023-03-06T14:21:55.773Z,18.77
2023-03-06T14:24:46.614Z,15.35
2023-03-06T14:27:18.055Z,14.50
2023-03-06T14:29:45.801Z,17.38
2023-03-06T14:32:16.064Z,14.13
2023-03-06T14:34:46.114Z,15.25
2023-03-06T14:37:21.451Z,16.08
2023-03-06T14:39:49.044Z,13.32
2023-03-06T14:42:20.906Z,17.00
2023-03-06T14:44:49.136Z,15.05
2023-03-06T14:47:21.333Z,17.38
2023-03-06T14:50:08.855Z,16.30
2023-03-06T14:52:37.615Z,15.30
2023-03-06T14:55:10.661Z,17.60
2023-03-06T14:57:38.396Z,15.88
2023-03-06T15:00:06.199Z,15.30
2023-03-06T15:02:35.413Z,20.42
2023-03-06T15:05:13.375Z,16.40
2023-03-06T15:07:41.767Z,16.98
2023-03-06T15:10:19.860Z,30.98
2023-03-06T15:12:47.556Z,22.42
2023-03-06T15:15:15.094Z,20.60
2023-03-06T15:20:41.230Z,18.05
2023-03-06T15:23:41.259Z,18.30
2023-03-06T15:26:29.135Z,15.60
2023-03-06T15:29:06.986Z,15.93
2023-03-06T15:31:45.676Z,18.27
2023-03-06T15:34:14.978Z,19.20
2023-03-06T15:36:42.339Z,18.25
2023-03-06T15:39:32.589Z,18.67
2023-03-06T15:42:04.013Z,18.83
2023-03-06T15:44:32.969Z,18.00
2023-03-06T15:47:08.432Z,14.60
2023-03-06T15:49:37.325Z,16.02
2023-03-06T15:52:07.982Z,15.82
2023-03-06T15:58:09.998Z,18.35
2023-03-06T16:00:39.646Z,16.27
2023-03-06T16:03:09.373Z,19.70
2023-03-06T16:05:37.295Z,18.88
2023-03-06T16:08:05.106Z,28.33
2023-03-06T16:10:42.661Z,23.23
2023-03-06T16:13:22.139Z,22.38
2023-03-06T16:16:15.481Z,19.30
2023-03-06T16:18:50.945Z,15.68
2023-03-06T16:21:18.607Z,19.45
2023-03-06T16:23:45.943Z,15.70
2023-03-06T16:26:24.630Z,16.70
2023-03-06T16:28:51.984Z,23.08
2023-03-06T16:31:19.625Z,21.17
2023-03-06T16:33:47.006Z,16.05
2023-03-06T16:36:18.629Z,36.28
2023-03-06T16:38:46.239Z,77.10
2023-03-06T16:41:14.297Z,60.33
2023-03-06T16:43:41.717Z,49.00
2023-03-06T16:46:19.995Z,62.03
2023-03-06T16:48:47.708Z,46.00
2023-03-06T16:51:19.640Z,44.67
2023-03-06T16:53:47.194Z,136.00
2023-03-06T16:56:15.824Z,125.32
2023-03-06T16:58:43.584Z,39.20
2023-03-06T17:01:14.340Z,25.00
2023-03-06T17:03:51.062Z,53.60
2023-03-06T17:06:20.294Z,48.70
2023-03-06T17:08:49.044Z,42.65
2023-03-06T17:11:22.463Z,39.17
2023-03-06T17:13:55.749Z,35.03
2023-03-06T17:16:23.592Z,34.28
2023-03-06T17:18:51.014Z,33.28
2023-03-06T17:21:18.919Z,32.05
2023-03-06T17:23:46.581Z,33.25
2023-03-06T17:26:18.120Z,35.50
2023-03-06T17:28:46.381Z,32.28
2023-03-06T17:31:22.865Z,24.27
2023-03-06T17:33:50.598Z,21.60
2023-03-06T17:36:18.574Z,35.10
2023-03-06T17:38:46.048Z,32.47
2023-03-06T17:41:14.025Z,27.33
2023-03-06T17:43:41.927Z,26.52
2023-03-06T17:46:10.841Z,21.58
2023-03-06T17:48:38.812Z,24.85
2023-03-06T17:51:06.810Z,22.33
2023-03-06T17:53:34.340Z,22.80
2023-03-06T17:56:05.964Z,24.05
2023-03-06T17:58:33.937Z,24.35
2023-03-06T18:01:09.594Z,35.47
2023-03-06T18:07:09.229Z,40.72
2023-03-06T18:12:59.361Z,31.37
2023-03-06T18:15:27.805Z,26.50
2023-03-06T18:17:55.671Z,17.67
2023-03-06T18:20:23.559Z,19.83
2023-03-06T18:26:29.391Z,23.83
2023-03-06T18:29:00.814Z,26.63
2023-03-06T18:31:30.859Z,29.88
2023-03-06T18:34:00.936Z,27.70
2023-03-06T18:36:29.708Z,32.85
2023-03-06T18:38:58.428Z,40.05
2023-03-06T18:41:25.840Z,34.40
2023-03-06T18:43:57.800Z,33.03
2023-03-06T18:46:29.772Z,34.15
2023-03-06T18:48:57.555Z,27.73
2023-03-06T18:51:42.344Z,26.75
2023-03-06T18:54:10.701Z,29.55
2023-03-06T18:56:38.816Z,25.45
2023-03-06T18:59:07.139Z,24.20
2023-03-06T19:01:34.799Z,22.75
2023-03-06T19:04:03.573Z,29.45
2023-03-06T19:06:31.269Z,24.90
2023-03-06T19:09:08.427Z,23.23
2023-03-06T19:11:35.860Z,25.48
2023-03-06T19:14:03.583Z,26.08
2023-03-06T19:16:44.522Z,28.13
2023-03-06T19:19:12.388Z,20.45
2023-03-06T19:21:39.715Z,21.90
2023-03-06T19:24:07.660Z,26.65
2023-03-06T19:26:35.153Z,25.90
2023-03-06T19:29:02.995Z,24.92
2023-03-06T19:31:30.537Z,23.58
2023-03-06T19:33:58.224Z,27.35
2023-03-06T19:36:27.263Z,22.13
2023-03-06T19:38:55.829Z,25.10
2023-03-06T19:41:26.600Z,20.95
2023-03-06T19:43:55.876Z,20.27
2023-03-06T19:46:23.750Z,27.35
2023-03-06T19:48:58.365Z,23.67
2023-03-06T19:51:26.319Z,23.10
2023-03-06T19:53:54.355Z,23.40
2023-03-06T19:56:23.095Z,21.75
2023-03-06T19:58:51.149Z,27.02
2023-03-06T20:01:36.958Z,25.60
2023-03-06T20:04:10.742Z,25.65
2023-03-06T20:06:43.710Z,23.95
2023-03-06T20:09:14.957Z,26.88
2023-03-06T20:11:42.439Z,27.88
2023-03-06T20:14:12.003Z,28.90
2023-03-06T20:16:41.262Z,32.28
2023-03-06T20:19:10.047Z,30.30
2023-03-06T20:21:38.186Z,30.95
2023-03-06T20:24:06.598Z,31.38
2023-03-06T20:26:34.445Z,31.15
2023-03-06T20:29:02.161Z,31.05
2023-03-06T20:31:32.178Z,31.42
2023-03-06T20:34:14.008Z,31.77
2023-03-06T20:36:41.596Z,33.05
2023-03-06T20:39:12.514Z,31.38
2023-03-06T20:41:55.033Z,28.52
2023-03-06T20:44:30.258Z,29.70
2023-03-06T20:46:57.852Z,31.48
2023-03-06T20:49:27.233Z,30.40
2023-03-06T20:51:55.859Z,29.85
2023-03-06T20:54:26.490Z,33.75
2023-03-06T20:56:56.916Z,32.75
2023-03-06T20:59:24.648Z,30.00
2023-03-06T21:01:52.082Z,31.35
2023-03-06T21:04:19.900Z,28.55
2023-03-06T21:06:47.482Z,34.28
2023-03-06T21:09:16.167Z,35.83
2023-03-06T21:11:44.590Z,31.75
2023-03-06T21:14:12.772Z,35.63
2023-03-06T21:16:40.533Z,32.20
2023-03-06T21:19:08.246Z,34.67
2023-03-06T21:21:35.774Z,31.88
2023-03-06T21:24:03.951Z,37.20
2023-03-06T21:26:32.110Z,36.17
2023-03-06T21:29:00.110Z,37.92
2023-03-06T21:31:28.081Z,35.70
2023-03-06T21:33:56.103Z,33.83
2023-03-06T21:36:23.743Z,41.78
2023-03-06T21:38:52.264Z,34.72
2023-03-06T21:41:23.946Z,43.13
2023-03-06T21:43:55.212Z,39.03
2023-03-06T21:46:22.954Z,39.58
2023-03-06T21:48:50.624Z,38.17
2023-03-06T21:51:19.204Z,44.45
2023-03-06T21:53:47.601Z,45.00
2023-03-06T21:56:16.175Z,46.03
2023-03-06T21:58:44.250Z,42.95
2023-03-06T22:01:12.667Z,37.45
2023-03-06T22:04:07.357Z,49.78
2023-03-06T22:06:34.926Z,40.95
2023-03-06T22:09:02.877Z,45.35
2023-03-06T22:11:30.484Z,44.70
2023-03-06T22:13:58.323Z,41.67
2023-03-06T22:16:25.923Z,42.72
2023-03-06T22:18:53.680Z,40.90
2023-03-06T22:21:22.063Z,47.33
2023-03-06T22:23:53.516Z,40.95
2023-03-06T22:26:21.011Z,40.33
2023-03-06T22:28:49.022Z,41.22
2023-03-06T22:31:17.996Z,40.50
2023-03-06T22:33:46.209Z,37.75
2023-03-06T22:36:15.215Z,38.42
2023-03-06T22:38:43.966Z,42.50
2023-03-06T22:41:11.781Z,45.40
2023-03-06T22:43:39.494Z,38.63
2023-03-06T22:46:08.421Z,39.08
2023-03-06T22:48:36.468Z,35.72
2023-03-06T22:51:07.665Z,42.95
2023-03-06T22:53:35.890Z,41.20
2023-03-06T22:56:04.619Z,37.20
2023-03-06T22:58:33.319Z,40.67
2023-03-06T23:01:11.507Z,38.97
2023-03-06T23:03:40.524Z,44.35
2023-03-06T23:06:12.750Z,43.20
2023-03-06T23:08:40.846Z,39.63
2023-03-06T23:11:26.399Z,40.42
2023-03-06T23:13:54.527Z,40.95
2023-03-06T23:16:22.130Z,44.58
2023-03-06T23:18:51.181Z,44.47
2023-03-06T23:21:20.173Z,46.13
2023-03-06T23:23:48.881Z,41.92
2023-03-06T23:26:16.982Z,43.03
2023-03-06T23:28:44.655Z,50.05
2023-03-06T23:31:13.672Z,45.33
2023-03-06T23:33:41.453Z,46.58
2023-03-06T23:36:10.328Z,41.13
2023-03-06T23:38:38.165Z,42.10
2023-03-06T23:41:06.675Z,44.50
2023-03-06T23:43:35.113Z,41.33
2023-03-06T23:46:03.043Z,45.13
2023-03-06T23:48:30.868Z,41.50
2023-03-06T23:50:58.326Z,46.28
2023-03-06T23:53:26.328Z,41.53
2023-03-06T23:55:53.745Z,44.15
2023-03-06T23:58:21.709Z,44.13
